Bryn Mawr, Washington
Current Conditions -  °F | °C
As of 9:01 PM on Saturday 20 Dec 2014 (Local Time) from KRNT Reporting Station
Overcast Overcast  
Wind Chill: 56°   Ceiling: 1500
Heat Index: 56°   Visibility: 10mi
Dew Point: 53°   Wind: 13mph
Humidity: 90%   Direction: 170°S
Pressure: 29.48"   Gusts: 26mph
Location:  47.4965°N, 122.251°W
Report Text: KRNT 210501Z AUTO 17011G23KT 10SM BKN015 OVC021 13/12 A2948 RMK AO2 T01330117 $
Loading
Personal Weather Stations






























Interactive Weather Map New forecast layout! Learn more

10-Day Weather Forecast

Advertisements
Track Severe Weather on mobile